sensor_id;sensor_type;location;lat;lon;timestamp;temperature;humidity
11538;DHT22;50159;49.426;11.182;2023-01-16T00:02:21;0.40;99.90
11538;DHT22;50159;49.426;11.182;2023-01-16T00:04:48;0.40;99.90
11538;DHT22;50159;49.426;11.182;2023-01-16T00:07:15;0.40;99.90
11538;DHT22;50159;49.426;11.182;2023-01-16T00:09:42;0.50;99.90
11538;DHT22;50159;49.426;11.182;2023-01-16T00:12:09;0.50;99.90
11538;DHT22;50159;49.426;11.182;2023-01-16T00:14:35;0.60;99.90
11538;DHT22;50159;49.426;11.182;2023-01-16T00:17:02;0.70;99.90
11538;DHT22;50159;49.426;11.182;2023-01-16T00:19:29;0.70;99.90
11538;DHT22;50159;49.426;11.182;2023-01-16T00:21:55;0.70;99.90
11538;DHT22;50159;49.426;11.182;2023-01-16T00:24:22;0.80;99.90
11538;DHT22;50159;49.426;11.182;2023-01-16T00:26:50;0.80;99.90
11538;DHT22;50159;49.426;11.182;2023-01-16T00:29:17;0.90;99.90
11538;DHT22;50159;49.426;11.182;2023-01-16T00:31:44;0.90;99.90
11538;DHT22;50159;49.426;11.182;2023-01-16T00:34:11;0.90;99.90
11538;DHT22;50159;49.426;11.182;2023-01-16T00:36:38;0.90;99.90
11538;DHT22;50159;49.426;11.182;2023-01-16T00:39:06;0.90;99.90
11538;DHT22;50159;49.426;11.182;2023-01-16T00:41:33;1.00;99.90
11538;DHT22;50159;49.426;11.182;2023-01-16T00:44:00;1.00;99.90
11538;DHT22;50159;49.426;11.182;2023-01-16T00:46:26;1.00;99.90
11538;DHT22;50159;49.426;11.182;2023-01-16T00:48:56;1.00;99.90
11538;DHT22;50159;49.426;11.182;2023-01-16T00:51:23;1.00;99.90
11538;DHT22;50159;49.426;11.182;2023-01-16T00:53:50;1.00;99.90
11538;DHT22;50159;49.426;11.182;2023-01-16T00:56:17;1.00;99.90
11538;DHT22;50159;49.426;11.182;2023-01-16T00:58:44;1.00;99.90
11538;DHT22;50159;49.426;11.182;2023-01-16T01:01:11;1.00;99.90
11538;DHT22;50159;49.426;11.182;2023-01-16T01:03:40;1.00;99.90
11538;DHT22;50159;49.426;11.182;2023-01-16T01:06:08;1.00;99.90
11538;DHT22;50159;49.426;11.182;2023-01-16T01:08:37;1.00;99.90
11538;DHT22;50159;49.426;11.182;2023-01-16T01:11:10;1.00;99.90
11538;DHT22;50159;49.426;11.182;2023-01-16T01:13:39;1.00;99.90
11538;DHT22;50159;49.426;11.182;2023-01-16T01:16:07;1.00;99.90
11538;DHT22;50159;49.426;11.182;2023-01-16T01:18:34;1.00;99.90
11538;DHT22;50159;49.426;11.182;2023-01-16T01:21:02;1.00;99.90
11538;DHT22;50159;49.426;11.182;2023-01-16T01:23:29;1.00;99.90
11538;DHT22;50159;49.426;11.182;2023-01-16T01:25:56;0.90;99.90
11538;DHT22;50159;49.426;11.182;2023-01-16T01:28:23;0.90;99.90
11538;DHT22;50159;49.426;11.182;2023-01-16T01:30:50;0.90;99.90
11538;DHT22;50159;49.426;11.182;2023-01-16T01:33:16;0.80;99.90
11538;DHT22;50159;49.426;11.182;2023-01-16T01:35:43;0.80;99.90
11538;DHT22;50159;49.426;11.182;2023-01-16T01:38:10;0.80;99.90
11538;DHT22;50159;49.426;11.182;2023-01-16T01:40:37;0.80;99.90
11538;DHT22;50159;49.426;11.182;2023-01-16T01:43:10;0.80;99.90
11538;DHT22;50159;49.426;11.182;2023-01-16T01:45:41;0.80;99.90
11538;DHT22;50159;49.426;11.182;2023-01-16T01:50:56;0.80;99.90
11538;DHT22;50159;49.426;11.182;2023-01-16T01:54:19;0.80;99.90
11538;DHT22;50159;49.426;11.182;2023-01-16T01:56:39;0.80;99.90
11538;DHT22;50159;49.426;11.182;2023-01-16T01:59:38;0.80;99.90
11538;DHT22;50159;49.426;11.182;2023-01-16T02:02:08;0.80;99.90
11538;DHT22;50159;49.426;11.182;2023-01-16T02:04:41;0.80;99.90
11538;DHT22;50159;49.426;11.182;2023-01-16T02:07:13;0.80;99.90
11538;DHT22;50159;49.426;11.182;2023-01-16T02:09:43;0.70;99.90
11538;DHT22;50159;49.426;11.182;2023-01-16T02:12:15;0.70;99.90
11538;DHT22;50159;49.426;11.182;2023-01-16T02:14:45;0.70;99.90
11538;DHT22;50159;49.426;11.182;2023-01-16T02:17:19;0.70;99.90
11538;DHT22;50159;49.426;11.182;2023-01-16T02:20:18;0.70;99.90
11538;DHT22;50159;49.426;11.182;2023-01-16T02:32:10;0.60;99.90
11538;DHT22;50159;49.426;11.182;2023-01-16T02:35:03;0.60;99.90
11538;DHT22;50159;49.426;11.182;2023-01-16T02:43:37;0.50;99.90
11538;DHT22;50159;49.426;11.182;2023-01-16T02:46:35;0.50;99.90
11538;DHT22;50159;49.426;11.182;2023-01-16T02:49:38;0.50;99.90
11538;DHT22;50159;49.426;11.182;2023-01-16T02:52:20;0.50;99.90
11538;DHT22;50159;49.426;11.182;2023-01-16T02:57:49;0.40;99.90
11538;DHT22;50159;49.426;11.182;2023-01-16T03:00:21;0.40;99.90
11538;DHT22;50159;49.426;11.182;2023-01-16T03:02:48;0.40;99.90
11538;DHT22;50159;49.426;11.182;2023-01-16T03:05:15;0.40;99.90
11538;DHT22;50159;49.426;11.182;2023-01-16T03:08:01;0.40;99.90
11538;DHT22;50159;49.426;11.182;2023-01-16T03:13:15;0.30;99.90
11538;DHT22;50159;49.426;11.182;2023-01-16T03:18:49;0.40;99.90
11538;DHT22;50159;49.426;11.182;2023-01-16T03:21:40;0.40;99.90
11538;DHT22;50159;49.426;11.182;2023-01-16T03:24:19;0.40;99.90
11538;DHT22;50159;49.426;11.182;2023-01-16T03:27:11;0.40;99.90
11538;DHT22;50159;49.426;11.182;2023-01-16T03:29:57;0.40;99.90
11538;DHT22;50159;49.426;11.182;2023-01-16T03:32:44;0.40;99.90
11538;DHT22;50159;49.426;11.182;2023-01-16T03:35:17;0.40;99.90
11538;DHT22;50159;49.426;11.182;2023-01-16T03:37:52;0.40;99.90
11538;DHT22;50159;49.426;11.182;2023-01-16T03:40:28;0.50;99.90
11538;DHT22;50159;49.426;11.182;2023-01-16T03:46:11;0.50;99.90
11538;DHT22;50159;49.426;11.182;2023-01-16T03:48:42;0.40;99.90
11538;DHT22;50159;49.426;11.182;2023-01-16T03:51:20;0.40;99.90
11538;DHT22;50159;49.426;11.182;2023-01-16T03:54:16;0.30;99.90
11538;DHT22;50159;49.426;11.182;2023-01-16T03:57:14;0.30;99.90
11538;DHT22;50159;49.426;11.182;2023-01-16T03:59:49;0.20;99.90
11538;DHT22;50159;49.426;11.182;2023-01-16T04:02:32;0.20;99.90
11538;DHT22;50159;49.426;11.182;2023-01-16T04:05:27;0.20;99.90
11538;DHT22;50159;49.426;11.182;2023-01-16T04:08:02;0.10;99.90
11538;DHT22;50159;49.426;11.182;2023-01-16T04:10:37;0.10;99.90
11538;DHT22;50159;49.426;11.182;2023-01-16T04:13:17;0.00;99.90
11538;DHT22;50159;49.426;11.182;2023-01-16T04:15:50;0.00;99.90
11538;DHT22;50159;49.426;11.182;2023-01-16T04:18:23;0.00;99.90
11538;DHT22;50159;49.426;11.182;2023-01-16T04:20:53;0.00;99.90
11538;DHT22;50159;49.426;11.182;2023-01-16T04:23:20;0.00;99.90
11538;DHT22;50159;49.426;11.182;2023-01-16T04:25:47;0.00;99.90
11538;DHT22;50159;49.426;11.182;2023-01-16T04:28:14;0.10;99.90
11538;DHT22;50159;49.426;11.182;2023-01-16T04:30:41;0.10;99.90
11538;DHT22;50159;49.426;11.182;2023-01-16T04:33:08;0.00;99.90
11538;DHT22;50159;49.426;11.182;2023-01-16T04:35:35;0.10;99.90
11538;DHT22;50159;49.426;11.182;2023-01-16T04:38:01;0.00;99.90
11538;DHT22;50159;49.426;11.182;2023-01-16T04:40:28;0.00;99.90
11538;DHT22;50159;49.426;11.182;2023-01-16T04:42:55;0.00;99.90
11538;DHT22;50159;49.426;11.182;2023-01-16T04:45:22;0.00;99.90
11538;DHT22;50159;49.426;11.182;2023-01-16T04:47:51;0.00;99.90
11538;DHT22;50159;49.426;11.182;2023-01-16T04:50:18;0.00;99.90
11538;DHT22;50159;49.426;11.182;2023-01-16T04:52:46;0.00;99.90
11538;DHT22;50159;49.426;11.182;2023-01-16T04:55:13;0.00;99.90
11538;DHT22;50159;49.426;11.182;2023-01-16T04:57:40;0.00;99.90
11538;DHT22;50159;49.426;11.182;2023-01-16T05:00:09;0.00;99.90
11538;DHT22;50159;49.426;11.182;2023-01-16T05:02:36;0.00;99.90
11538;DHT22;50159;49.426;11.182;2023-01-16T05:05:04;0.00;99.90
11538;DHT22;50159;49.426;11.182;2023-01-16T05:07:31;0.00;99.90
11538;DHT22;50159;49.426;11.182;2023-01-16T05:09:58;0.10;99.90
11538;DHT22;50159;49.426;11.182;2023-01-16T05:12:24;0.10;99.90
11538;DHT22;50159;49.426;11.182;2023-01-16T05:14:51;0.10;99.90
11538;DHT22;50159;49.426;11.182;2023-01-16T05:17:18;0.10;99.90
11538;DHT22;50159;49.426;11.182;2023-01-16T05:19:49;0.10;99.90
11538;DHT22;50159;49.426;11.182;2023-01-16T05:22:16;0.10;99.90
11538;DHT22;50159;49.426;11.182;2023-01-16T05:24:43;0.10;99.90
11538;DHT22;50159;49.426;11.182;2023-01-16T05:27:09;0.10;99.90
11538;DHT22;50159;49.426;11.182;2023-01-16T05:29:36;0.10;99.90
11538;DHT22;50159;49.426;11.182;2023-01-16T05:32:03;0.10;99.90
11538;DHT22;50159;49.426;11.182;2023-01-16T05:34:30;0.10;99.90
11538;DHT22;50159;49.426;11.182;2023-01-16T05:36:57;0.10;99.90
11538;DHT22;50159;49.426;11.182;2023-01-16T05:39:24;0.10;99.90
11538;DHT22;50159;49.426;11.182;2023-01-16T05:41:50;0.10;99.90
11538;DHT22;50159;49.426;11.182;2023-01-16T05:44:17;0.10;99.90
11538;DHT22;50159;49.426;11.182;2023-01-16T05:46:45;0.10;99.90
11538;DHT22;50159;49.426;11.182;2023-01-16T05:49:12;0.10;99.90
11538;DHT22;50159;49.426;11.182;2023-01-16T05:51:39;0.10;99.90
11538;DHT22;50159;49.426;11.182;2023-01-16T05:54:10;0.10;99.90
11538;DHT22;50159;49.426;11.182;2023-01-16T05:56:38;0.10;99.90
11538;DHT22;50159;49.426;11.182;2023-01-16T05:59:05;0.10;99.90
11538;DHT22;50159;49.426;11.182;2023-01-16T06:01:33;0.10;99.90
11538;DHT22;50159;49.426;11.182;2023-01-16T06:04:00;0.10;99.90
11538;DHT22;50159;49.426;11.182;2023-01-16T06:06:27;0.10;99.90
11538;DHT22;50159;49.426;11.182;2023-01-16T06:08:53;0.10;99.90
11538;DHT22;50159;49.426;11.182;2023-01-16T06:11:20;0.10;99.90
11538;DHT22;50159;49.426;11.182;2023-01-16T06:13:47;0.10;99.90
11538;DHT22;50159;49.426;11.182;2023-01-16T06:16:14;0.10;99.90
11538;DHT22;50159;49.426;11.182;2023-01-16T06:18:41;0.20;99.90
11538;DHT22;50159;49.426;11.182;2023-01-16T06:21:07;0.20;99.90
11538;DHT22;50159;49.426;11.182;2023-01-16T06:23:34;0.20;99.90
11538;DHT22;50159;49.426;11.182;2023-01-16T06:26:01;0.20;99.90
11538;DHT22;50159;49.426;11.182;2023-01-16T06:28:29;0.10;99.90
11538;DHT22;50159;49.426;11.182;2023-01-16T06:30:56;0.20;99.90
11538;DHT22;50159;49.426;11.182;2023-01-16T06:33:23;0.20;99.90
11538;DHT22;50159;49.426;11.182;2023-01-16T06:35:52;0.20;99.90
11538;DHT22;50159;49.426;11.182;2023-01-16T06:38:19;0.20;99.90
11538;DHT22;50159;49.426;11.182;2023-01-16T06:40:46;0.10;99.90
11538;DHT22;50159;49.426;11.182;2023-01-16T06:43:13;0.20;99.90
11538;DHT22;50159;49.426;11.182;2023-01-16T06:45:42;0.20;99.90
11538;DHT22;50159;49.426;11.182;2023-01-16T06:48:11;0.20;99.90
11538;DHT22;50159;49.426;11.182;2023-01-16T06:50:38;0.10;99.90
11538;DHT22;50159;49.426;11.182;2023-01-16T06:53:05;0.10;99.90
11538;DHT22;50159;49.426;11.182;2023-01-16T06:55:32;0.20;99.90
11538;DHT22;50159;49.426;11.182;2023-01-16T06:57:59;0.20;99.90
11538;DHT22;50159;49.426;11.182;2023-01-16T07:00:25;0.20;99.90
11538;DHT22;50159;49.426;11.182;2023-01-16T07:02:53;0.20;99.90
11538;DHT22;50159;49.426;11.182;2023-01-16T07:05:23;0.20;99.90
11538;DHT22;50159;49.426;11.182;2023-01-16T07:07:51;0.20;99.90
11538;DHT22;50159;49.426;11.182;2023-01-16T07:10:18;0.20;99.90
11538;DHT22;50159;49.426;11.182;2023-01-16T07:12:49;0.20;99.90
11538;DHT22;50159;49.426;11.182;2023-01-16T07:15:19;0.30;99.90
11538;DHT22;50159;49.426;11.182;2023-01-16T07:18:05;0.30;99.90
11538;DHT22;50159;49.426;11.182;2023-01-16T07:20:53;0.30;99.90
11538;DHT22;50159;49.426;11.182;2023-01-16T07:23:44;0.30;99.90
11538;DHT22;50159;49.426;11.182;2023-01-16T07:26:14;0.30;99.90
11538;DHT22;50159;49.426;11.182;2023-01-16T07:28:46;0.30;99.90
11538;DHT22;50159;49.426;11.182;2023-01-16T07:31:15;0.30;99.90
11538;DHT22;50159;49.426;11.182;2023-01-16T07:33:43;0.30;99.90
11538;DHT22;50159;49.426;11.182;2023-01-16T07:36:09;0.40;99.90
11538;DHT22;50159;49.426;11.182;2023-01-16T07:38:36;0.40;99.90
11538;DHT22;50159;49.426;11.182;2023-01-16T07:41:03;0.40;99.90
11538;DHT22;50159;49.426;11.182;2023-01-16T07:43:30;0.50;99.90
11538;DHT22;50159;49.426;11.182;2023-01-16T07:45:57;0.50;99.90
11538;DHT22;50159;49.426;11.182;2023-01-16T07:48:24;0.60;99.90
11538;DHT22;50159;49.426;11.182;2023-01-16T07:50:56;0.70;99.90
11538;DHT22;50159;49.426;11.182;2023-01-16T07:53:27;0.80;99.90
11538;DHT22;50159;49.426;11.182;2023-01-16T07:56:01;0.90;99.90
11538;DHT22;50159;49.426;11.182;2023-01-16T07:58:29;0.90;99.90
11538;DHT22;50159;49.426;11.182;2023-01-16T08:00:57;1.10;99.90
11538;DHT22;50159;49.426;11.182;2023-01-16T08:03:24;1.20;99.90
11538;DHT22;50159;49.426;11.182;2023-01-16T08:05:56;1.50;99.90
11538;DHT22;50159;49.426;11.182;2023-01-16T08:08:24;2.00;99.90
11538;DHT22;50159;49.426;11.182;2023-01-16T08:10:53;2.90;99.90
11538;DHT22;50159;49.426;11.182;2023-01-16T08:13:25;4.40;99.90
11538;DHT22;50159;49.426;11.182;2023-01-16T08:15:52;6.10;99.90
11538;DHT22;50159;49.426;11.182;2023-01-16T08:18:19;7.50;94.30
11538;DHT22;50159;49.426;11.182;2023-01-16T08:20:46;8.80;91.50
11538;DHT22;50159;49.426;11.182;2023-01-16T08:23:13;10.10;74.80
11538;DHT22;50159;49.426;11.182;2023-01-16T08:25:40;11.20;67.70
11538;DHT22;50159;49.426;11.182;2023-01-16T08:28:06;11.80;58.30
11538;DHT22;50159;49.426;11.182;2023-01-16T08:30:33;12.10;53.10
11538;DHT22;50159;49.426;11.182;2023-01-16T08:33:01;12.20;51.50
11538;DHT22;50159;49.426;11.182;2023-01-16T08:35:28;12.20;52.00
11538;DHT22;50159;49.426;11.182;2023-01-16T08:37:55;12.40;52.90
11538;DHT22;50159;49.426;11.182;2023-01-16T08:40:21;12.60;49.20
11538;DHT22;50159;49.426;11.182;2023-01-16T08:42:48;12.70;47.60
11538;DHT22;50159;49.426;11.182;2023-01-16T08:45:34;12.70;48.00
11538;DHT22;50159;49.426;11.182;2023-01-16T08:48:24;12.90;48.00
11538;DHT22;50159;49.426;11.182;2023-01-16T08:51:18;13.50;47.00
11538;DHT22;50159;49.426;11.182;2023-01-16T08:53:50;14.00;45.80
11538;DHT22;50159;49.426;11.182;2023-01-16T08:56:19;14.20;44.00
11538;DHT22;50159;49.426;11.182;2023-01-16T08:58:46;14.30;43.40
11538;DHT22;50159;49.426;11.182;2023-01-16T09:01:14;14.40;43.40
11538;DHT22;50159;49.426;11.182;2023-01-16T09:03:42;14.80;43.40
11538;DHT22;50159;49.426;11.182;2023-01-16T09:06:09;15.30;41.80
11538;DHT22;50159;49.426;11.182;2023-01-16T09:08:35;15.00;41.60
11538;DHT22;50159;49.426;11.182;2023-01-16T09:11:02;13.40;40.40
11538;DHT22;50159;49.426;11.182;2023-01-16T09:14:07;11.10;44.10
11538;DHT22;50159;49.426;11.182;2023-01-16T09:16:51;8.60;51.00
11538;DHT22;50159;49.426;11.182;2023-01-16T09:19:17;7.10;55.90
11538;DHT22;50159;49.426;11.182;2023-01-16T09:21:44;6.20;59.70
11538;DHT22;50159;49.426;11.182;2023-01-16T09:24:11;5.60;62.20
11538;DHT22;50159;49.426;11.182;2023-01-16T09:26:38;5.10;65.10
11538;DHT22;50159;49.426;11.182;2023-01-16T09:29:05;4.80;67.00
11538;DHT22;50159;49.426;11.182;2023-01-16T09:31:31;4.60;69.20
11538;DHT22;50159;49.426;11.182;2023-01-16T09:33:58;4.50;70.50
11538;DHT22;50159;49.426;11.182;2023-01-16T09:36:25;4.40;71.90
11538;DHT22;50159;49.426;11.182;2023-01-16T09:38:52;4.30;72.50
11538;DHT22;50159;49.426;11.182;2023-01-16T09:41:19;4.20;74.40
11538;DHT22;50159;49.426;11.182;2023-01-16T09:44:09;4.20;76.30
11538;DHT22;50159;49.426;11.182;2023-01-16T09:46:46;4.20;77.00
11538;DHT22;50159;49.426;11.182;2023-01-16T09:49:23;4.20;78.10
11538;DHT22;50159;49.426;11.182;2023-01-16T09:52:11;4.20;78.80
11538;DHT22;50159;49.426;11.182;2023-01-16T09:55:04;4.20;79.20
11538;DHT22;50159;49.426;11.182;2023-01-16T09:58:01;4.20;79.90
11538;DHT22;50159;49.426;11.182;2023-01-16T10:00:50;4.30;79.60
11538;DHT22;50159;49.426;11.182;2023-01-16T10:03:17;4.40;79.50
11538;DHT22;50159;49.426;11.182;2023-01-16T10:05:50;4.40;80.60
11538;DHT22;50159;49.426;11.182;2023-01-16T10:08:45;4.50;80.50
11538;DHT22;50159;49.426;11.182;2023-01-16T10:11:42;4.60;79.70
11538;DHT22;50159;49.426;11.182;2023-01-16T10:17:33;4.70;78.00
11538;DHT22;50159;49.426;11.182;2023-01-16T10:25:46;4.90;76.00
11538;DHT22;50159;49.426;11.182;2023-01-16T10:28:36;5.10;76.10
11538;DHT22;50159;49.426;11.182;2023-01-16T10:31:16;5.20;75.50
11538;DHT22;50159;49.426;11.182;2023-01-16T10:33:54;5.40;73.90
11538;DHT22;50159;49.426;11.182;2023-01-16T10:36:29;5.50;74.40
11538;DHT22;50159;49.426;11.182;2023-01-16T10:38:59;5.60;74.00
11538;DHT22;50159;49.426;11.182;2023-01-16T10:41:40;5.60;72.80
11538;DHT22;50159;49.426;11.182;2023-01-16T10:44:49;5.60;71.50
11538;DHT22;50159;49.426;11.182;2023-01-16T10:47:41;5.60;71.60
11538;DHT22;50159;49.426;11.182;2023-01-16T10:50:27;5.70;71.00
11538;DHT22;50159;49.426;11.182;2023-01-16T10:53:07;5.70;72.30
11538;DHT22;50159;49.426;11.182;2023-01-16T10:55:38;5.90;71.40
11538;DHT22;50159;49.426;11.182;2023-01-16T10:58:33;6.00;70.50
11538;DHT22;50159;49.426;11.182;2023-01-16T11:01:06;6.10;70.00
11538;DHT22;50159;49.426;11.182;2023-01-16T11:06:15;6.00;68.00
11538;DHT22;50159;49.426;11.182;2023-01-16T11:08:59;5.90;68.80
11538;DHT22;50159;49.426;11.182;2023-01-16T11:11:29;5.90;68.70
11538;DHT22;50159;49.426;11.182;2023-01-16T11:14:30;5.90;68.50
11538;DHT22;50159;49.426;11.182;2023-01-16T11:17:30;5.90;68.40
11538;DHT22;50159;49.426;11.182;2023-01-16T11:20:36;5.90;68.70
11538;DHT22;50159;49.426;11.182;2023-01-16T11:23:16;5.90;70.10
11538;DHT22;50159;49.426;11.182;2023-01-16T11:25:47;5.90;71.00
11538;DHT22;50159;49.426;11.182;2023-01-16T11:28:22;6.20;71.00
11538;DHT22;50159;49.426;11.182;2023-01-16T11:30:54;6.60;69.30
11538;DHT22;50159;49.426;11.182;2023-01-16T11:33:26;6.70;67.20
11538;DHT22;50159;49.426;11.182;2023-01-16T11:36:01;6.90;67.70
11538;DHT22;50159;49.426;11.182;2023-01-16T11:38:34;7.20;68.50
11538;DHT22;50159;49.426;11.182;2023-01-16T11:41:05;7.50;65.10
11538;DHT22;50159;49.426;11.182;2023-01-16T11:43:34;7.70;65.60
11538;DHT22;50159;49.426;11.182;2023-01-16T11:46:33;7.60;62.70
11538;DHT22;50159;49.426;11.182;2023-01-16T11:49:28;7.50;63.10
11538;DHT22;50159;49.426;11.182;2023-01-16T11:52:01;7.50;63.90
11538;DHT22;50159;49.426;11.182;2023-01-16T11:54:34;7.40;61.90
11538;DHT22;50159;49.426;11.182;2023-01-16T11:57:15;7.20;62.40
11538;DHT22;50159;49.426;11.182;2023-01-16T12:03:11;6.80;62.80
11538;DHT22;50159;49.426;11.182;2023-01-16T12:06:06;6.50;63.50
11538;DHT22;50159;49.426;11.182;2023-01-16T12:11:44;6.20;64.60
11538;DHT22;50159;49.426;11.182;2023-01-16T12:14:53;6.10;66.20
11538;DHT22;50159;49.426;11.182;2023-01-16T12:20:25;5.90;66.50
11538;DHT22;50159;49.426;11.182;2023-01-16T12:28:53;6.00;66.20
11538;DHT22;50159;49.426;11.182;2023-01-16T12:34:29;6.50;66.60
11538;DHT22;50159;49.426;11.182;2023-01-16T12:46:18;6.80;62.90
11538;DHT22;50159;49.426;11.182;2023-01-16T12:49:12;6.60;62.50
11538;DHT22;50159;49.426;11.182;2023-01-16T12:55:22;6.20;63.90
11538;DHT22;50159;49.426;11.182;2023-01-16T13:00:58;5.90;65.10
11538;DHT22;50159;49.426;11.182;2023-01-16T13:03:52;5.90;65.40
11538;DHT22;50159;49.426;11.182;2023-01-16T13:06:40;5.80;65.10
11538;DHT22;50159;49.426;11.182;2023-01-16T13:09:42;5.80;65.10
11538;DHT22;50159;49.426;11.182;2023-01-16T13:12:24;5.80;65.70
11538;DHT22;50159;49.426;11.182;2023-01-16T13:15:17;5.80;66.20
11538;DHT22;50159;49.426;11.182;2023-01-16T13:18:04;5.80;65.90
11538;DHT22;50159;49.426;11.182;2023-01-16T13:20:40;5.70;66.20
11538;DHT22;50159;49.426;11.182;2023-01-16T13:23:32;5.70;66.50
11538;DHT22;50159;49.426;11.182;2023-01-16T13:26:11;5.70;66.70
11538;DHT22;50159;49.426;11.182;2023-01-16T13:28:59;5.60;67.00
11538;DHT22;50159;49.426;11.182;2023-01-16T13:34:29;5.60;67.40
11538;DHT22;50159;49.426;11.182;2023-01-16T13:37:21;5.60;68.10
11538;DHT22;50159;49.426;11.182;2023-01-16T13:42:47;5.50;67.40
11538;DHT22;50159;49.426;11.182;2023-01-16T13:45:36;5.50;67.60
11538;DHT22;50159;49.426;11.182;2023-01-16T13:48:20;5.40;67.90
11538;DHT22;50159;49.426;11.182;2023-01-16T13:51:01;5.40;68.30
11538;DHT22;50159;49.426;11.182;2023-01-16T13:53:53;5.50;68.70
11538;DHT22;50159;49.426;11.182;2023-01-16T13:56:26;5.40;68.40
11538;DHT22;50159;49.426;11.182;2023-01-16T13:58:59;5.40;68.60
11538;DHT22;50159;49.426;11.182;2023-01-16T14:04:24;5.40;68.00
11538;DHT22;50159;49.426;11.182;2023-01-16T14:07:02;5.30;68.10
11538;DHT22;50159;49.426;11.182;2023-01-16T14:10:23;5.30;68.30
11538;DHT22;50159;49.426;11.182;2023-01-16T14:23:57;5.20;69.00
11538;DHT22;50159;49.426;11.182;2023-01-16T14:29:02;5.10;69.10
11538;DHT22;50159;49.426;11.182;2023-01-16T14:31:39;5.20;69.70
11538;DHT22;50159;49.426;11.182;2023-01-16T14:37:17;5.10;69.10
11538;DHT22;50159;49.426;11.182;2023-01-16T14:39:56;5.10;70.00
11538;DHT22;50159;49.426;11.182;2023-01-16T14:42:55;5.10;70.60
11538;DHT22;50159;49.426;11.182;2023-01-16T14:49:38;5.00;71.10
11538;DHT22;50159;49.426;11.182;2023-01-16T14:55:51;5.00;71.30
11538;DHT22;50159;49.426;11.182;2023-01-16T14:58:52;5.00;72.00
11538;DHT22;50159;49.426;11.182;2023-01-16T15:04:21;4.90;72.60
11538;DHT22;50159;49.426;11.182;2023-01-16T15:06:56;4.90;73.50
11538;DHT22;50159;49.426;11.182;2023-01-16T15:09:28;4.90;73.80
11538;DHT22;50159;49.426;11.182;2023-01-16T15:12:10;4.90;73.70
11538;DHT22;50159;49.426;11.182;2023-01-16T15:15:02;4.90;74.30
11538;DHT22;50159;49.426;11.182;2023-01-16T15:17:34;4.80;74.50
11538;DHT22;50159;49.426;11.182;2023-01-16T15:20:26;4.80;74.80
11538;DHT22;50159;49.426;11.182;2023-01-16T15:25:55;4.70;74.90
11538;DHT22;50159;49.426;11.182;2023-01-16T15:33:44;4.70;75.40
11538;DHT22;50159;49.426;11.182;2023-01-16T15:36:52;4.70;75.70
11538;DHT22;50159;49.426;11.182;2023-01-16T15:42:11;4.60;75.50
11538;DHT22;50159;49.426;11.182;2023-01-16T15:45:01;4.60;75.70
11538;DHT22;50159;49.426;11.182;2023-01-16T15:48:14;4.60;76.50
11538;DHT22;50159;49.426;11.182;2023-01-16T15:51:00;4.50;76.30
11538;DHT22;50159;49.426;11.182;2023-01-16T15:53:39;4.50;76.60
11538;DHT22;50159;49.426;11.182;2023-01-16T15:56:36;4.50;77.00
11538;DHT22;50159;49.426;11.182;2023-01-16T15:59:31;4.40;77.00
11538;DHT22;50159;49.426;11.182;2023-01-16T16:04:48;4.40;77.80
11538;DHT22;50159;49.426;11.182;2023-01-16T16:07:18;4.40;78.10
11538;DHT22;50159;49.426;11.182;2023-01-16T16:09:47;4.40;78.10
11538;DHT22;50159;49.426;11.182;2023-01-16T16:12:18;4.40;78.30
11538;DHT22;50159;49.426;11.182;2023-01-16T16:14:47;4.30;78.50
11538;DHT22;50159;49.426;11.182;2023-01-16T16:17:34;4.40;78.40
11538;DHT22;50159;49.426;11.182;2023-01-16T16:20:37;4.40;78.60
11538;DHT22;50159;49.426;11.182;2023-01-16T16:33:26;4.60;76.70
11538;DHT22;50159;49.426;11.182;2023-01-16T16:35:57;4.60;76.80
11538;DHT22;50159;49.426;11.182;2023-01-16T16:38:26;4.60;76.60
11538;DHT22;50159;49.426;11.182;2023-01-16T16:44:25;4.70;76.60
11538;DHT22;50159;49.426;11.182;2023-01-16T16:46:59;4.70;76.80
11538;DHT22;50159;49.426;11.182;2023-01-16T16:49:28;4.70;76.90
11538;DHT22;50159;49.426;11.182;2023-01-16T16:54:56;4.60;77.50
11538;DHT22;50159;49.426;11.182;2023-01-16T16:57:32;4.60;77.10
11538;DHT22;50159;49.426;11.182;2023-01-16T17:00:09;4.60;76.50
11538;DHT22;50159;49.426;11.182;2023-01-16T17:02:41;4.60;76.60
11538;DHT22;50159;49.426;11.182;2023-01-16T17:05:12;4.60;76.60
11538;DHT22;50159;49.426;11.182;2023-01-16T17:07:48;4.60;77.10
11538;DHT22;50159;49.426;11.182;2023-01-16T17:10:17;4.50;77.30
11538;DHT22;50159;49.426;11.182;2023-01-16T17:12:44;4.40;77.50
11538;DHT22;50159;49.426;11.182;2023-01-16T17:15:11;4.40;77.80
11538;DHT22;50159;49.426;11.182;2023-01-16T17:17:41;4.30;78.10
11538;DHT22;50159;49.426;11.182;2023-01-16T17:20:19;4.30;78.20
11538;DHT22;50159;49.426;11.182;2023-01-16T17:22:48;4.20;78.10
11538;DHT22;50159;49.426;11.182;2023-01-16T17:25:16;4.20;78.60
11538;DHT22;50159;49.426;11.182;2023-01-16T17:27:55;4.10;79.00
11538;DHT22;50159;49.426;11.182;2023-01-16T17:30:23;4.10;79.60
11538;DHT22;50159;49.426;11.182;2023-01-16T17:32:56;4.10;79.50
11538;DHT22;50159;49.426;11.182;2023-01-16T17:35:25;4.00;79.90
11538;DHT22;50159;49.426;11.182;2023-01-16T17:37:52;4.00;80.40
11538;DHT22;50159;49.426;11.182;2023-01-16T17:40:19;4.00;80.20
11538;DHT22;50159;49.426;11.182;2023-01-16T17:42:46;4.00;80.40
11538;DHT22;50159;49.426;11.182;2023-01-16T17:45:41;3.90;80.40
11538;DHT22;50159;49.426;11.182;2023-01-16T17:48:20;3.90;80.60
11538;DHT22;50159;49.426;11.182;2023-01-16T17:50:52;3.90;80.60
11538;DHT22;50159;49.426;11.182;2023-01-16T17:53:21;3.90;80.80
11538;DHT22;50159;49.426;11.182;2023-01-16T17:55:51;3.90;81.00
11538;DHT22;50159;49.426;11.182;2023-01-16T17:58:33;3.80;81.00
11538;DHT22;50159;49.426;11.182;2023-01-16T18:01:25;3.80;81.40
11538;DHT22;50159;49.426;11.182;2023-01-16T18:03:58;3.80;80.90
11538;DHT22;50159;49.426;11.182;2023-01-16T18:06:33;3.90;80.10
11538;DHT22;50159;49.426;11.182;2023-01-16T18:09:01;4.00;80.20
11538;DHT22;50159;49.426;11.182;2023-01-16T18:11:34;4.00;79.90
11538;DHT22;50159;49.426;11.182;2023-01-16T18:14:20;4.00;79.70
11538;DHT22;50159;49.426;11.182;2023-01-16T18:17:11;4.00;79.40
11538;DHT22;50159;49.426;11.182;2023-01-16T18:19:57;4.00;79.20
11538;DHT22;50159;49.426;11.182;2023-01-16T18:22:29;4.00;79.20
11538;DHT22;50159;49.426;11.182;2023-01-16T18:24:58;4.00;78.90
11538;DHT22;50159;49.426;11.182;2023-01-16T18:27:25;4.00;78.50
11538;DHT22;50159;49.426;11.182;2023-01-16T18:29:52;4.10;78.20
11538;DHT22;50159;49.426;11.182;2023-01-16T18:32:20;4.10;77.90
11538;DHT22;50159;49.426;11.182;2023-01-16T18:34:48;4.10;78.30
11538;DHT22;50159;49.426;11.182;2023-01-16T18:37:37;4.10;77.70
11538;DHT22;50159;49.426;11.182;2023-01-16T18:40:11;4.10;77.00